sensor_id;sensor_type;location;lat;lon;timestamp;P1;durP1;ratioP1;P2;durP2;ratioP2
4642;SDS011;2334;48.710;9.622;2022-08-19T00:01:18;22.43;;;14.47;;
4642;SDS011;2334;48.710;9.622;2022-08-19T00:03:45;27.83;;;18.27;;
4642;SDS011;2334;48.710;9.622;2022-08-19T00:06:12;24.00;;;16.00;;
4642;SDS011;2334;48.710;9.622;2022-08-19T00:08:41;24.60;;;16.60;;
4642;SDS011;2334;48.710;9.622;2022-08-19T00:11:08;26.70;;;17.40;;
4642;SDS011;2334;48.710;9.622;2022-08-19T00:13:35;30.20;;;17.37;;
4642;SDS011;2334;48.710;9.622;2022-08-19T00:16:03;28.10;;;17.23;;
4642;SDS011;2334;48.710;9.622;2022-08-19T00:18:30;29.50;;;18.60;;
4642;SDS011;2334;48.710;9.622;2022-08-19T00:20:57;25.13;;;17.43;;
4642;SDS011;2334;48.710;9.622;2022-08-19T00:23:25;30.73;;;18.23;;
4642;SDS011;2334;48.710;9.622;2022-08-19T00:25:53;30.90;;;17.97;;
4642;SDS011;2334;48.710;9.622;2022-08-19T00:28:20;31.43;;;16.80;;
4642;SDS011;2334;48.710;9.622;2022-08-19T00:30:47;32.60;;;18.33;;
4642;SDS011;2334;48.710;9.622;2022-08-19T00:33:16;29.37;;;18.00;;
4642;SDS011;2334;48.710;9.622;2022-08-19T00:35:43;33.77;;;16.57;;
4642;SDS011;2334;48.710;9.622;2022-08-19T00:38:10;25.87;;;18.30;;
4642;SDS011;2334;48.710;9.622;2022-08-19T00:40:37;24.53;;;16.87;;
4642;SDS011;2334;48.710;9.622;2022-08-19T00:43:09;28.20;;;17.90;;
4642;SDS011;2334;48.710;9.622;2022-08-19T00:45:38;28.40;;;18.30;;
4642;SDS011;2334;48.710;9.622;2022-08-19T00:48:06;27.97;;;16.83;;
4642;SDS011;2334;48.710;9.622;2022-08-19T00:50:34;26.33;;;16.47;;
4642;SDS011;2334;48.710;9.622;2022-08-19T00:53:01;24.43;;;16.17;;
4642;SDS011;2334;48.710;9.622;2022-08-19T00:55:29;34.57;;;18.47;;
4642;SDS011;2334;48.710;9.622;2022-08-19T00:58:00;26.70;;;17.43;;
4642;SDS011;2334;48.710;9.622;2022-08-19T01:00:31;30.13;;;17.27;;
4642;SDS011;2334;48.710;9.622;2022-08-19T01:03:00;30.87;;;17.17;;
4642;SDS011;2334;48.710;9.622;2022-08-19T01:05:27;29.93;;;18.33;;
4642;SDS011;2334;48.710;9.622;2022-08-19T01:07:56;32.23;;;18.60;;
4642;SDS011;2334;48.710;9.622;2022-08-19T01:10:25;32.03;;;19.23;;
4642;SDS011;2334;48.710;9.622;2022-08-19T01:12:55;29.53;;;19.57;;
4642;SDS011;2334;48.710;9.622;2022-08-19T01:15:26;30.57;;;19.67;;
4642;SDS011;2334;48.710;9.622;2022-08-19T01:17:57;30.13;;;18.73;;
4642;SDS011;2334;48.710;9.622;2022-08-19T01:20:25;31.30;;;19.93;;
4642;SDS011;2334;48.710;9.622;2022-08-19T01:22:55;24.13;;;17.30;;
4642;SDS011;2334;48.710;9.622;2022-08-19T01:25:24;28.60;;;19.60;;
4642;SDS011;2334;48.710;9.622;2022-08-19T01:27:55;28.37;;;18.37;;
4642;SDS011;2334;48.710;9.622;2022-08-19T01:30:23;37.50;;;21.37;;
4642;SDS011;2334;48.710;9.622;2022-08-19T01:32:53;28.00;;;17.33;;
4642;SDS011;2334;48.710;9.622;2022-08-19T01:35:21;45.43;;;23.07;;
4642;SDS011;2334;48.710;9.622;2022-08-19T01:37:50;29.83;;;19.00;;
4642;SDS011;2334;48.710;9.622;2022-08-19T01:40:22;30.60;;;18.70;;
4642;SDS011;2334;48.710;9.622;2022-08-19T01:42:52;40.80;;;21.20;;
4642;SDS011;2334;48.710;9.622;2022-08-19T01:45:21;34.47;;;21.70;;
4642;SDS011;2334;48.710;9.622;2022-08-19T01:47:51;36.33;;;22.10;;
4642;SDS011;2334;48.710;9.622;2022-08-19T01:50:18;39.37;;;22.73;;
4642;SDS011;2334;48.710;9.622;2022-08-19T01:52:46;35.07;;;22.33;;
4642;SDS011;2334;48.710;9.622;2022-08-19T01:55:14;36.77;;;21.27;;
4642;SDS011;2334;48.710;9.622;2022-08-19T01:57:46;29.77;;;19.70;;
4642;SDS011;2334;48.710;9.622;2022-08-19T02:00:17;34.27;;;20.83;;
4642;SDS011;2334;48.710;9.622;2022-08-19T02:02:46;40.47;;;22.90;;
4642;SDS011;2334;48.710;9.622;2022-08-19T02:05:12;38.60;;;21.60;;
4642;SDS011;2334;48.710;9.622;2022-08-19T02:07:43;31.27;;;19.70;;
4642;SDS011;2334;48.710;9.622;2022-08-19T02:10:11;35.47;;;21.53;;
4642;SDS011;2334;48.710;9.622;2022-08-19T02:12:41;36.07;;;22.00;;
4642;SDS011;2334;48.710;9.622;2022-08-19T02:15:10;37.00;;;20.07;;
4642;SDS011;2334;48.710;9.622;2022-08-19T02:17:37;37.37;;;21.40;;
4642;SDS011;2334;48.710;9.622;2022-08-19T02:20:04;33.07;;;20.03;;
4642;SDS011;2334;48.710;9.622;2022-08-19T02:22:33;38.53;;;20.53;;
4642;SDS011;2334;48.710;9.622;2022-08-19T02:25:00;34.80;;;21.57;;
4642;SDS011;2334;48.710;9.622;2022-08-19T02:27:29;29.10;;;16.17;;
4642;SDS011;2334;48.710;9.622;2022-08-19T02:29:58;30.60;;;19.73;;
4642;SDS011;2334;48.710;9.622;2022-08-19T02:32:27;37.60;;;22.30;;
4642;SDS011;2334;48.710;9.622;2022-08-19T02:34:55;36.87;;;18.23;;
4642;SDS011;2334;48.710;9.622;2022-08-19T02:37:22;33.97;;;18.93;;
4642;SDS011;2334;48.710;9.622;2022-08-19T02:40:08;39.43;;;23.03;;
4642;SDS011;2334;48.710;9.622;2022-08-19T02:42:35;34.67;;;20.10;;
4642;SDS011;2334;48.710;9.622;2022-08-19T02:45:02;35.17;;;20.27;;
4642;SDS011;2334;48.710;9.622;2022-08-19T02:47:31;37.63;;;22.53;;
4642;SDS011;2334;48.710;9.622;2022-08-19T02:49:59;33.60;;;20.67;;
4642;SDS011;2334;48.710;9.622;2022-08-19T02:52:27;33.40;;;19.30;;
4642;SDS011;2334;48.710;9.622;2022-08-19T02:54:54;33.53;;;19.53;;
4642;SDS011;2334;48.710;9.622;2022-08-19T02:57:22;31.47;;;18.57;;
4642;SDS011;2334;48.710;9.622;2022-08-19T02:59:49;42.20;;;21.17;;
4642;SDS011;2334;48.710;9.622;2022-08-19T03:02:16;37.00;;;21.73;;
4642;SDS011;2334;48.710;9.622;2022-08-19T03:04:45;43.70;;;22.07;;
4642;SDS011;2334;48.710;9.622;2022-08-19T03:07:12;42.47;;;22.57;;
4642;SDS011;2334;48.710;9.622;2022-08-19T03:09:41;39.57;;;23.00;;
4642;SDS011;2334;48.710;9.622;2022-08-19T03:12:08;31.87;;;18.37;;
4642;SDS011;2334;48.710;9.622;2022-08-19T03:14:36;40.10;;;21.80;;
4642;SDS011;2334;48.710;9.622;2022-08-19T03:17:04;31.67;;;18.87;;
4642;SDS011;2334;48.710;9.622;2022-08-19T03:19:30;34.53;;;20.20;;
4642;SDS011;2334;48.710;9.622;2022-08-19T03:21:59;40.00;;;21.00;;
4642;SDS011;2334;48.710;9.622;2022-08-19T03:24:26;35.43;;;19.10;;
4642;SDS011;2334;48.710;9.622;2022-08-19T03:26:53;35.33;;;17.80;;
4642;SDS011;2334;48.710;9.622;2022-08-19T03:29:22;37.00;;;19.93;;
4642;SDS011;2334;48.710;9.622;2022-08-19T03:31:50;29.30;;;18.53;;
4642;SDS011;2334;48.710;9.622;2022-08-19T03:34:18;37.03;;;21.10;;
4642;SDS011;2334;48.710;9.622;2022-08-19T03:36:47;37.50;;;19.43;;
4642;SDS011;2334;48.710;9.622;2022-08-19T03:39:15;38.23;;;21.37;;
4642;SDS011;2334;48.710;9.622;2022-08-19T03:41:44;36.17;;;21.13;;
4642;SDS011;2334;48.710;9.622;2022-08-19T03:44:12;34.60;;;19.50;;
4642;SDS011;2334;48.710;9.622;2022-08-19T03:46:39;35.67;;;19.80;;
4642;SDS011;2334;48.710;9.622;2022-08-19T03:49:06;35.70;;;20.77;;
4642;SDS011;2334;48.710;9.622;2022-08-19T03:51:34;36.83;;;21.20;;
4642;SDS011;2334;48.710;9.622;2022-08-19T03:54:03;39.50;;;21.80;;
4642;SDS011;2334;48.710;9.622;2022-08-19T03:56:35;36.87;;;21.53;;
4642;SDS011;2334;48.710;9.622;2022-08-19T03:59:04;42.57;;;22.10;;
4642;SDS011;2334;48.710;9.622;2022-08-19T04:01:32;42.23;;;23.27;;
4642;SDS011;2334;48.710;9.622;2022-08-19T04:03:59;42.87;;;22.60;;
4642;SDS011;2334;48.710;9.622;2022-08-19T04:06:27;40.17;;;21.27;;
4642;SDS011;2334;48.710;9.622;2022-08-19T04:08:57;55.00;;;22.20;;
4642;SDS011;2334;48.710;9.622;2022-08-19T04:11:26;40.37;;;21.70;;
4642;SDS011;2334;48.710;9.622;2022-08-19T04:13:56;40.10;;;19.97;;
4642;SDS011;2334;48.710;9.622;2022-08-19T04:16:24;28.10;;;15.77;;
4642;SDS011;2334;48.710;9.622;2022-08-19T04:18:53;34.17;;;17.90;;
4642;SDS011;2334;48.710;9.622;2022-08-19T04:21:22;30.90;;;18.47;;
4642;SDS011;2334;48.710;9.622;2022-08-19T04:23:50;30.13;;;17.80;;
4642;SDS011;2334;48.710;9.622;2022-08-19T04:26:19;33.83;;;19.30;;
4642;SDS011;2334;48.710;9.622;2022-08-19T04:28:47;34.50;;;20.07;;
4642;SDS011;2334;48.710;9.622;2022-08-19T04:31:18;33.40;;;20.30;;
4642;SDS011;2334;48.710;9.622;2022-08-19T04:33:47;36.93;;;20.30;;
4642;SDS011;2334;48.710;9.622;2022-08-19T04:36:17;40.10;;;22.10;;
4642;SDS011;2334;48.710;9.622;2022-08-19T04:38:46;34.53;;;19.33;;
4642;SDS011;2334;48.710;9.622;2022-08-19T04:41:13;30.20;;;18.73;;
4642;SDS011;2334;48.710;9.622;2022-08-19T04:44:10;40.73;;;21.30;;
4642;SDS011;2334;48.710;9.622;2022-08-19T04:46:39;44.17;;;22.10;;
4642;SDS011;2334;48.710;9.622;2022-08-19T04:49:06;30.20;;;17.87;;
4642;SDS011;2334;48.710;9.622;2022-08-19T04:51:34;35.70;;;21.87;;
4642;SDS011;2334;48.710;9.622;2022-08-19T04:54:02;36.63;;;20.20;;
4642;SDS011;2334;48.710;9.622;2022-08-19T04:56:29;35.07;;;19.63;;
4642;SDS011;2334;48.710;9.622;2022-08-19T04:58:56;39.37;;;21.77;;
4642;SDS011;2334;48.710;9.622;2022-08-19T05:01:28;42.83;;;22.57;;
4642;SDS011;2334;48.710;9.622;2022-08-19T05:03:58;45.10;;;22.23;;
4642;SDS011;2334;48.710;9.622;2022-08-19T05:06:26;38.13;;;21.20;;
4642;SDS011;2334;48.710;9.622;2022-08-19T05:08:57;38.37;;;20.50;;
4642;SDS011;2334;48.710;9.622;2022-08-19T05:11:26;34.83;;;20.40;;
4642;SDS011;2334;48.710;9.622;2022-08-19T05:13:54;41.70;;;22.57;;
4642;SDS011;2334;48.710;9.622;2022-08-19T05:16:22;43.00;;;22.53;;
4642;SDS011;2334;48.710;9.622;2022-08-19T05:18:50;39.73;;;20.30;;
4642;SDS011;2334;48.710;9.622;2022-08-19T05:21:37;39.70;;;20.67;;
4642;SDS011;2334;48.710;9.622;2022-08-19T05:24:22;45.50;;;22.63;;
4642;SDS011;2334;48.710;9.622;2022-08-19T05:26:51;38.13;;;20.97;;
4642;SDS011;2334;48.710;9.622;2022-08-19T05:29:21;40.17;;;20.33;;
4642;SDS011;2334;48.710;9.622;2022-08-19T05:31:49;33.60;;;19.30;;
4642;SDS011;2334;48.710;9.622;2022-08-19T05:34:17;37.70;;;20.83;;
4642;SDS011;2334;48.710;9.622;2022-08-19T05:36:48;45.10;;;22.13;;
4642;SDS011;2334;48.710;9.622;2022-08-19T05:39:17;39.60;;;21.73;;
4642;SDS011;2334;48.710;9.622;2022-08-19T05:41:46;51.57;;;22.43;;
4642;SDS011;2334;48.710;9.622;2022-08-19T05:44:15;53.20;;;21.63;;
4642;SDS011;2334;48.710;9.622;2022-08-19T05:46:43;38.43;;;20.47;;
4642;SDS011;2334;48.710;9.622;2022-08-19T05:49:12;35.70;;;20.13;;
4642;SDS011;2334;48.710;9.622;2022-08-19T05:51:40;47.43;;;21.57;;
4642;SDS011;2334;48.710;9.622;2022-08-19T05:54:09;38.03;;;20.10;;
4642;SDS011;2334;48.710;9.622;2022-08-19T05:56:38;40.00;;;20.40;;
4642;SDS011;2334;48.710;9.622;2022-08-19T05:59:06;42.00;;;21.60;;
4642;SDS011;2334;48.710;9.622;2022-08-19T06:01:36;43.00;;;21.13;;
4642;SDS011;2334;48.710;9.622;2022-08-19T06:04:04;41.30;;;21.00;;
4642;SDS011;2334;48.710;9.622;2022-08-19T06:06:32;41.43;;;20.70;;
4642;SDS011;2334;48.710;9.622;2022-08-19T06:09:00;42.80;;;21.20;;
4642;SDS011;2334;48.710;9.622;2022-08-19T06:11:34;39.80;;;21.87;;
4642;SDS011;2334;48.710;9.622;2022-08-19T06:14:06;36.80;;;19.57;;
4642;SDS011;2334;48.710;9.622;2022-08-19T06:16:41;39.63;;;20.77;;
4642;SDS011;2334;48.710;9.622;2022-08-19T06:19:11;38.60;;;19.57;;
4642;SDS011;2334;48.710;9.622;2022-08-19T06:21:41;36.50;;;18.90;;
4642;SDS011;2334;48.710;9.622;2022-08-19T06:24:11;47.00;;;22.03;;
4642;SDS011;2334;48.710;9.622;2022-08-19T06:26:43;39.40;;;21.07;;
4642;SDS011;2334;48.710;9.622;2022-08-19T06:29:12;42.50;;;20.87;;
4642;SDS011;2334;48.710;9.622;2022-08-19T06:31:41;41.80;;;20.93;;
4642;SDS011;2334;48.710;9.622;2022-08-19T06:34:09;32.00;;;18.73;;
4642;SDS011;2334;48.710;9.622;2022-08-19T06:36:37;43.60;;;21.90;;
4642;SDS011;2334;48.710;9.622;2022-08-19T06:39:07;38.87;;;20.70;;
4642;SDS011;2334;48.710;9.622;2022-08-19T06:41:36;40.60;;;20.93;;
4642;SDS011;2334;48.710;9.622;2022-08-19T06:44:06;45.37;;;21.40;;
4642;SDS011;2334;48.710;9.622;2022-08-19T06:46:33;36.23;;;20.40;;
4642;SDS011;2334;48.710;9.622;2022-08-19T06:49:03;39.40;;;21.20;;
4642;SDS011;2334;48.710;9.622;2022-08-19T06:51:31;37.30;;;21.07;;
4642;SDS011;2334;48.710;9.622;2022-08-19T06:53:59;40.00;;;22.50;;
4642;SDS011;2334;48.710;9.622;2022-08-19T06:56:28;45.03;;;23.50;;
4642;SDS011;2334;48.710;9.622;2022-08-19T06:58:56;41.77;;;23.53;;
4642;SDS011;2334;48.710;9.622;2022-08-19T07:01:25;40.83;;;20.37;;
4642;SDS011;2334;48.710;9.622;2022-08-19T07:03:52;43.13;;;23.00;;
4642;SDS011;2334;48.710;9.622;2022-08-19T07:06:19;41.10;;;21.97;;
4642;SDS011;2334;48.710;9.622;2022-08-19T07:08:47;44.37;;;21.87;;
4642;SDS011;2334;48.710;9.622;2022-08-19T07:11:16;44.43;;;23.37;;
4642;SDS011;2334;48.710;9.622;2022-08-19T07:13:45;44.53;;;25.23;;
4642;SDS011;2334;48.710;9.622;2022-08-19T07:16:14;45.23;;;22.70;;
4642;SDS011;2334;48.710;9.622;2022-08-19T07:18:45;38.63;;;20.60;;
4642;SDS011;2334;48.710;9.622;2022-08-19T07:21:13;36.07;;;19.73;;
4642;SDS011;2334;48.710;9.622;2022-08-19T07:23:42;42.30;;;23.70;;
4642;SDS011;2334;48.710;9.622;2022-08-19T07:26:10;38.90;;;22.03;;
4642;SDS011;2334;48.710;9.622;2022-08-19T07:28:40;38.73;;;21.93;;
4642;SDS011;2334;48.710;9.622;2022-08-19T07:31:09;44.97;;;23.07;;
4642;SDS011;2334;48.710;9.622;2022-08-19T07:33:38;40.60;;;22.20;;
4642;SDS011;2334;48.710;9.622;2022-08-19T07:36:09;42.90;;;23.93;;
4642;SDS011;2334;48.710;9.622;2022-08-19T07:38:39;52.47;;;23.47;;
4642;SDS011;2334;48.710;9.622;2022-08-19T07:41:10;41.47;;;22.40;;
4642;SDS011;2334;48.710;9.622;2022-08-19T07:43:38;37.73;;;21.13;;
4642;SDS011;2334;48.710;9.622;2022-08-19T07:46:05;44.20;;;22.43;;
4642;SDS011;2334;48.710;9.622;2022-08-19T07:48:33;40.83;;;22.47;;
4642;SDS011;2334;48.710;9.622;2022-08-19T07:51:02;40.73;;;23.00;;
4642;SDS011;2334;48.710;9.622;2022-08-19T07:53:34;46.23;;;23.60;;
4642;SDS011;2334;48.710;9.622;2022-08-19T07:56:03;46.17;;;22.03;;
4642;SDS011;2334;48.710;9.622;2022-08-19T07:58:31;49.73;;;23.10;;
4642;SDS011;2334;48.710;9.622;2022-08-19T08:01:02;47.37;;;24.37;;
4642;SDS011;2334;48.710;9.622;2022-08-19T08:03:30;48.17;;;23.60;;
4642;SDS011;2334;48.710;9.622;2022-08-19T08:06:14;44.27;;;23.20;;
4642;SDS011;2334;48.710;9.622;2022-08-19T08:09:00;36.60;;;19.90;;
4642;SDS011;2334;48.710;9.622;2022-08-19T08:11:42;39.83;;;22.20;;
4642;SDS011;2334;48.710;9.622;2022-08-19T08:14:14;44.90;;;24.43;;
4642;SDS011;2334;48.710;9.622;2022-08-19T08:16:42;39.43;;;22.70;;
4642;SDS011;2334;48.710;9.622;2022-08-19T08:19:11;45.13;;;24.30;;
4642;SDS011;2334;48.710;9.622;2022-08-19T08:21:40;42.13;;;23.90;;
4642;SDS011;2334;48.710;9.622;2022-08-19T08:24:09;42.73;;;24.60;;
4642;SDS011;2334;48.710;9.622;2022-08-19T08:26:37;46.40;;;24.07;;
4642;SDS011;2334;48.710;9.622;2022-08-19T08:29:04;44.23;;;24.37;;
4642;SDS011;2334;48.710;9.622;2022-08-19T08:31:32;42.20;;;25.03;;
4642;SDS011;2334;48.710;9.622;2022-08-19T08:33:59;43.00;;;23.50;;
4642;SDS011;2334;48.710;9.622;2022-08-19T08:36:27;44.07;;;24.57;;
4642;SDS011;2334;48.710;9.622;2022-08-19T08:38:54;44.27;;;24.60;;
4642;SDS011;2334;48.710;9.622;2022-08-19T08:41:25;49.67;;;23.83;;
4642;SDS011;2334;48.710;9.622;2022-08-19T08:43:58;43.87;;;23.97;;
4642;SDS011;2334;48.710;9.622;2022-08-19T08:46:30;45.77;;;24.20;;
4642;SDS011;2334;48.710;9.622;2022-08-19T08:49:04;47.17;;;25.37;;
4642;SDS011;2334;48.710;9.622;2022-08-19T08:51:51;46.07;;;22.13;;
4642;SDS011;2334;48.710;9.622;2022-08-19T08:54:25;50.10;;;25.40;;
4642;SDS011;2334;48.710;9.622;2022-08-19T08:56:58;44.57;;;26.33;;
4642;SDS011;2334;48.710;9.622;2022-08-19T08:59:26;43.47;;;23.60;;
4642;SDS011;2334;48.710;9.622;2022-08-19T09:01:57;46.53;;;24.07;;
4642;SDS011;2334;48.710;9.622;2022-08-19T09:04:24;47.77;;;25.03;;
4642;SDS011;2334;48.710;9.622;2022-08-19T09:06:53;56.67;;;26.70;;
4642;SDS011;2334;48.710;9.622;2022-08-19T09:09:40;51.03;;;26.33;;
4642;SDS011;2334;48.710;9.622;2022-08-19T09:12:14;44.50;;;24.63;;
4642;SDS011;2334;48.710;9.622;2022-08-19T09:14:49;46.03;;;25.30;;
4642;SDS011;2334;48.710;9.622;2022-08-19T09:17:22;54.70;;;25.90;;
4642;SDS011;2334;48.710;9.622;2022-08-19T09:19:56;53.00;;;27.27;;
4642;SDS011;2334;48.710;9.622;2022-08-19T09:22:29;45.90;;;24.67;;
4642;SDS011;2334;48.710;9.622;2022-08-19T09:24:56;45.33;;;25.10;;
4642;SDS011;2334;48.710;9.622;2022-08-19T09:27:25;51.60;;;26.77;;
4642;SDS011;2334;48.710;9.622;2022-08-19T09:29:53;47.07;;;26.00;;
4642;SDS011;2334;48.710;9.622;2022-08-19T09:32:20;49.33;;;25.70;;
4642;SDS011;2334;48.710;9.622;2022-08-19T09:34:48;51.10;;;27.03;;
4642;SDS011;2334;48.710;9.622;2022-08-19T09:37:15;54.63;;;27.53;;
4642;SDS011;2334;48.710;9.622;2022-08-19T09:39:42;48.10;;;25.47;;
4642;SDS011;2334;48.710;9.622;2022-08-19T09:42:09;55.53;;;26.47;;
4642;SDS011;2334;48.710;9.622;2022-08-19T09:44:40;53.03;;;26.40;;
4642;SDS011;2334;48.710;9.622;2022-08-19T09:47:07;51.03;;;27.80;;
4642;SDS011;2334;48.710;9.622;2022-08-19T09:49:36;56.80;;;27.83;;
4642;SDS011;2334;48.710;9.622;2022-08-19T09:52:03;52.63;;;26.77;;
4642;SDS011;2334;48.710;9.622;2022-08-19T09:54:32;48.53;;;27.87;;
4642;SDS011;2334;48.710;9.622;2022-08-19T09:57:00;52.67;;;27.80;;
4642;SDS011;2334;48.710;9.622;2022-08-19T09:59:27;48.17;;;24.33;;
4642;SDS011;2334;48.710;9.622;2022-08-19T10:01:55;51.10;;;27.73;;
4642;SDS011;2334;48.710;9.622;2022-08-19T10:04:23;46.13;;;26.47;;
4642;SDS011;2334;48.710;9.622;2022-08-19T10:07:10;50.23;;;27.40;;
4642;SDS011;2334;48.710;9.622;2022-08-19T10:09:37;55.60;;;27.37;;
4642;SDS011;2334;48.710;9.622;2022-08-19T10:12:06;47.00;;;24.13;;
4642;SDS011;2334;48.710;9.622;2022-08-19T10:14:34;58.30;;;24.27;;
4642;SDS011;2334;48.710;9.622;2022-08-19T10:17:02;44.20;;;25.23;;
4642;SDS011;2334;48.710;9.622;2022-08-19T10:19:30;48.43;;;25.90;;
4642;SDS011;2334;48.710;9.622;2022-08-19T10:22:02;44.77;;;24.50;;
4642;SDS011;2334;48.710;9.622;2022-08-19T10:24:30;41.67;;;23.70;;
4642;SDS011;2334;48.710;9.622;2022-08-19T10:26:58;47.40;;;25.17;;
4642;SDS011;2334;48.710;9.622;2022-08-19T10:29:28;46.40;;;25.50;;
4642;SDS011;2334;48.710;9.622;2022-08-19T10:31:56;45.07;;;23.80;;
4642;SDS011;2334;48.710;9.622;2022-08-19T10:34:24;41.37;;;23.27;;
4642;SDS011;2334;48.710;9.622;2022-08-19T10:36:52;45.20;;;22.90;;
4642;SDS011;2334;48.710;9.622;2022-08-19T10:39:19;52.73;;;23.53;;
4642;SDS011;2334;48.710;9.622;2022-08-19T10:41:45;44.97;;;22.90;;
4642;SDS011;2334;48.710;9.622;2022-08-19T10:44:14;48.57;;;22.80;;
4642;SDS011;2334;48.710;9.622;2022-08-19T10:46:43;49.97;;;24.57;;
4642;SDS011;2334;48.710;9.622;2022-08-19T10:49:12;46.40;;;25.13;;
4642;SDS011;2334;48.710;9.622;2022-08-19T10:51:40;45.23;;;24.63;;
4642;SDS011;2334;48.710;9.622;2022-08-19T10:54:25;44.63;;;24.43;;
4642;SDS011;2334;48.710;9.622;2022-08-19T10:57:12;42.40;;;22.33;;
4642;SDS011;2334;48.710;9.622;2022-08-19T10:59:38;45.17;;;24.07;;
4642;SDS011;2334;48.710;9.622;2022-08-19T11:02:07;51.20;;;23.17;;
4642;SDS011;2334;48.710;9.622;2022-08-19T11:04:36;44.20;;;23.20;;
4642;SDS011;2334;48.710;9.622;2022-08-19T11:07:05;50.00;;;24.03;;
4642;SDS011;2334;48.710;9.622;2022-08-19T11:09:36;38.50;;;23.60;;
4642;SDS011;2334;48.710;9.622;2022-08-19T11:12:05;50.93;;;25.67;;
4642;SDS011;2334;48.710;9.622;2022-08-19T11:14:33;46.17;;;22.60;;
4642;SDS011;2334;48.710;9.622;2022-08-19T11:17:00;40.07;;;21.43;;
4642;SDS011;2334;48.710;9.622;2022-08-19T11:19:28;41.80;;;25.00;;
4642;SDS011;2334;48.710;9.622;2022-08-19T11:21:55;44.47;;;24.70;;
4642;SDS011;2334;48.710;9.622;2022-08-19T11:24:24;47.00;;;24.07;;
4642;SDS011;2334;48.710;9.622;2022-08-19T11:26:53;39.37;;;21.83;;
4642;SDS011;2334;48.710;9.622;2022-08-19T11:29:27;44.20;;;23.67;;
4642;SDS011;2334;48.710;9.622;2022-08-19T11:31:54;43.33;;;23.00;;
4642;SDS011;2334;48.710;9.622;2022-08-19T11:34:22;51.30;;;26.37;;
4642;SDS011;2334;48.710;9.622;2022-08-19T11:36:52;43.67;;;24.70;;
4642;SDS011;2334;48.710;9.622;2022-08-19T11:39:25;54.43;;;26.40;;
4642;SDS011;2334;48.710;9.622;2022-08-19T11:41:53;53.33;;;26.43;;
4642;SDS011;2334;48.710;9.622;2022-08-19T11:44:20;49.47;;;26.40;;
4642;SDS011;2334;48.710;9.622;2022-08-19T11:46:47;64.27;;;28.90;;
4642;SDS011;2334;48.710;9.622;2022-08-19T11:49:15;48.73;;;26.17;;
4642;SDS011;2334;48.710;9.622;2022-08-19T11:51:44;50.67;;;28.00;;
4642;SDS011;2334;48.710;9.622;2022-08-19T11:54:12;51.20;;;22.83;;
4642;SDS011;2334;48.710;9.622;2022-08-19T11:56:42;47.07;;;25.17;;
4642;SDS011;2334;48.710;9.622;2022-08-19T11:59:10;56.63;;;28.33;;
4642;SDS011;2334;48.710;9.622;2022-08-19T12:01:37;48.83;;;26.13;;
4642;SDS011;2334;48.710;9.622;2022-08-19T12:04:05;46.70;;;24.13;;
4642;SDS011;2334;48.710;9.622;2022-08-19T12:06:32;53.80;;;27.53;;
4642;SDS011;2334;48.710;9.622;2022-08-19T12:09:00;41.23;;;22.23;;
4642;SDS011;2334;48.710;9.622;2022-08-19T12:11:29;43.20;;;25.67;;
4642;SDS011;2334;48.710;9.622;2022-08-19T12:13:57;53.83;;;27.40;;
4642;SDS011;2334;48.710;9.622;2022-08-19T12:16:25;52.37;;;26.13;;
4642;SDS011;2334;48.710;9.622;2022-08-19T12:18:54;58.50;;;28.53;;
4642;SDS011;2334;48.710;9.622;2022-08-19T12:21:24;53.50;;;25.80;;
4642;SDS011;2334;48.710;9.622;2022-08-19T12:23:54;50.57;;;26.10;;
4642;SDS011;2334;48.710;9.622;2022-08-19T12:26:23;48.47;;;26.30;;
4642;SDS011;2334;48.710;9.622;2022-08-19T12:28:50;49.60;;;24.33;;
4642;SDS011;2334;48.710;9.622;2022-08-19T12:31:19;50.63;;;25.10;;
4642;SDS011;2334;48.710;9.622;2022-08-19T12:33:46;59.07;;;28.03;;
4642;SDS011;2334;48.710;9.622;2022-08-19T12:36:14;51.67;;;26.03;;
4642;SDS011;2334;48.710;9.622;2022-08-19T12:38:43;60.87;;;28.03;;
4642;SDS011;2334;48.710;9.622;2022-08-19T12:41:12;52.33;;;27.47;;
4642;SDS011;2334;48.710;9.622;2022-08-19T12:43:41;56.93;;;28.90;;
4642;SDS011;2334;48.710;9.622;2022-08-19T12:46:08;56.87;;;29.07;;
4642;SDS011;2334;48.710;9.622;2022-08-19T12:48:37;58.07;;;29.10;;
4642;SDS011;2334;48.710;9.622;2022-08-19T12:51:07;60.50;;;29.80;;
4642;SDS011;2334;48.710;9.622;2022-08-19T12:53:37;65.23;;;30.90;;
4642;SDS011;2334;48.710;9.622;2022-08-19T12:56:04;56.90;;;29.13;;
4642;SDS011;2334;48.710;9.622;2022-08-19T12:58:32;58.47;;;28.47;;
4642;SDS011;2334;48.710;9.622;2022-08-19T13:00:59;53.03;;;27.57;;
4642;SDS011;2334;48.710;9.622;2022-08-19T13:03:31;48.40;;;26.53;;
4642;SDS011;2334;48.710;9.622;2022-08-19T13:05:59;45.63;;;24.67;;
4642;SDS011;2334;48.710;9.622;2022-08-19T13:08:28;61.63;;;29.00;;
4642;SDS011;2334;48.710;9.622;2022-08-19T13:10:55;64.90;;;30.43;;
4642;SDS011;2334;48.710;9.622;2022-08-19T13:13:23;60.63;;;31.13;;
4642;SDS011;2334;48.710;9.622;2022-08-19T13:15:50;52.17;;;27.23;;
4642;SDS011;2334;48.710;9.622;2022-08-19T13:18:18;54.67;;;27.63;;
4642;SDS011;2334;48.710;9.622;2022-08-19T13:20:45;48.63;;;25.17;;
4642;SDS011;2334;48.710;9.622;2022-08-19T13:23:13;47.40;;;24.20;;
4642;SDS011;2334;48.710;9.622;2022-08-19T13:25:40;51.20;;;25.63;;
4642;SDS011;2334;48.710;9.622;2022-08-19T13:28:07;46.07;;;27.03;;
4642;SDS011;2334;48.710;9.622;2022-08-19T13:30:34;44.33;;;24.10;;
4642;SDS011;2334;48.710;9.622;2022-08-19T13:33:18;46.80;;;26.07;;
4642;SDS011;2334;48.710;9.622;2022-08-19T13:35:46;51.73;;;26.43;;
4642;SDS011;2334;48.710;9.622;2022-08-19T13:38:17;51.30;;;28.37;;
4642;SDS011;2334;48.710;9.622;2022-08-19T13:40:45;46.17;;;24.40;;
4642;SDS011;2334;48.710;9.622;2022-08-19T13:43:14;54.10;;;27.53;;
4642;SDS011;2334;48.710;9.622;2022-08-19T13:45:42;51.63;;;27.10;;
4642;SDS011;2334;48.710;9.622;2022-08-19T13:48:09;53.90;;;28.73;;
4642;SDS011;2334;48.710;9.622;2022-08-19T13:50:38;58.10;;;26.70;;
4642;SDS011;2334;48.710;9.622;2022-08-19T13:53:07;57.90;;;28.43;;
4642;SDS011;2334;48.710;9.622;2022-08-19T13:55:36;44.43;;;24.27;;
4642;SDS011;2334;48.710;9.622;2022-08-19T13:58:03;47.97;;;26.30;;
4642;SDS011;2334;48.710;9.622;2022-08-19T14:00:32;58.30;;;28.30;;
4642;SDS011;2334;48.710;9.622;2022-08-19T14:03:00;61.03;;;27.73;;
4642;SDS011;2334;48.710;9.622;2022-08-19T14:05:29;45.27;;;25.10;;
4642;SDS011;2334;48.710;9.622;2022-08-19T14:07:57;55.70;;;27.23;;
4642;SDS011;2334;48.710;9.622;2022-08-19T14:10:24;48.90;;;24.50;;
4642;SDS011;2334;48.710;9.622;2022-08-19T14:12:55;52.83;;;26.87;;
4642;SDS011;2334;48.710;9.622;2022-08-19T14:15:23;58.40;;;26.23;;
4642;SDS011;2334;48.710;9.622;2022-08-19T14:17:50;47.20;;;25.50;;
4642;SDS011;2334;48.710;9.622;2022-08-19T14:20:21;38.77;;;22.60;;
4642;SDS011;2334;48.710;9.622;2022-08-19T14:22:48;46.40;;;25.40;;
4642;SDS011;2334;48.710;9.622;2022-08-19T14:25:16;48.83;;;24.80;;
4642;SDS011;2334;48.710;9.622;2022-08-19T14:27:46;50.17;;;24.47;;
4642;SDS011;2334;48.710;9.622;2022-08-19T14:30:17;49.33;;;25.97;;
4642;SDS011;2334;48.710;9.622;2022-08-19T14:32:47;50.60;;;26.23;;
4642;SDS011;2334;48.710;9.622;2022-08-19T14:35:14;49.07;;;25.00;;
4642;SDS011;2334;48.710;9.622;2022-08-19T14:37:42;40.57;;;21.67;;
4642;SDS011;2334;48.710;9.622;2022-08-19T14:40:10;40.30;;;22.03;;
4642;SDS011;2334;48.710;9.622;2022-08-19T14:42:38;43.83;;;23.57;;
4642;SDS011;2334;48.710;9.622;2022-08-19T14:45:05;45.67;;;23.97;;
4642;SDS011;2334;48.710;9.622;2022-08-19T14:47:34;45.80;;;24.63;;
4642;SDS011;2334;48.710;9.622;2022-08-19T14:50:03;51.90;;;25.07;;
4642;SDS011;2334;48.710;9.622;2022-08-19T14:52:31;53.30;;;27.60;;
4642;SDS011;2334;48.710;9.622;2022-08-19T14:54:58;44.87;;;25.23;;
4642;SDS011;2334;48.710;9.622;2022-08-19T14:57:25;44.13;;;24.00;;
4642;SDS011;2334;48.710;9.622;2022-08-19T14:59:52;40.77;;;24.20;;